Time;durP1;ratioP1;P1;durP2;ratioP2;P2;SDS_P1;SDS_P2;PMS_P1;PMS_P2;Temp;Humidity;BMP_temperature;BMP_pressure;BME280_temperature;BME280_humidity;BME280_pressure;Samples;Min_cycle;Max_cycle;Signal;HPM_P1;HPM_P2
2024/04/20 00:01:37;;;;;;;;;;;;;;;;;;6283915;22;19924;-83
2024/04/20 00:04:05;;;;;;;;;;;;;;;;;;6283719;22;19973;-83
2024/04/20 00:06:39;;;;;;;;;;;;;;;;;;6286888;22;19924;-84
2024/04/20 00:09:06;;;;;;;;;;;;;;;;;;6324425;22;19926;-83
2024/04/20 00:11:40;;;;;;;;;;;;;;;;;;6326730;22;19935;-83
2024/04/20 00:14:07;;;;;;;;;;;;;;;;;;6324529;22;19930;-83
2024/04/20 00:16:35;;;;;;;;;;;;;;;;;;6282832;22;20314;-83
2024/04/20 00:19:09;;;;;;;;;;;;;;;;;;6326489;22;19935;-83
2024/04/20 00:21:37;;;;;;;;;;;;;;;;;;6326354;22;19924;-84
2024/04/20 00:24:04;;;;;;;;;;;;;;;;;;6283395;22;19936;-83
2024/04/20 00:26:38;;;;;;;;;;;;;;;;;;6325125;22;19930;-83
2024/04/20 00:29:06;;;;;;;;;;;;;;;;;;6283499;22;19936;-83
2024/04/20 00:31:33;;;;;;;;;;;;;;;;;;6325709;22;19923;-83
2024/04/20 00:34:07;;;;;;;;;;;;;;;;;;6325546;22;19952;-82
2024/04/20 00:36:34;;;;;;;;;;;;;;;;;;6282601;22;19931;-83
2024/04/20 00:39:09;;;;;;;;;;;;;;;;;;6324925;22;19924;-83
2024/04/20 00:41:36;;;;;;;;;;;;;;;;;;6285197;22;20238;-84
2024/04/20 00:44:03;;;;;;;;;;;;;;;;;;6282952;22;20441;-83
2024/04/20 00:46:37;;;;;;;;;;;;;;;;;;6274022;22;19932;-83
2024/04/20 00:49:04;;;;;;;;;;;;;;;;;;6275910;22;19924;-82
2024/04/20 00:51:38;;;;;;;;;;;;;;;;;;6276083;22;19928;-82
2024/04/20 00:54:05;;;;;;;;;;;;;;;;;;6273808;22;19932;-83
2024/04/20 00:56:32;;;;;;;;;;;;;;;;;;6277262;22;19924;-83
2024/04/20 00:59:06;;;;;;;;;;;;;;;;;;6275366;22;19996;-82
2024/04/20 01:01:33;;;;;;;;;;;;;;;;;;6275182;22;19924;-83
2024/04/20 01:04:07;;;;;;;;;;;;;;;;;;6278712;22;19948;-83
2024/04/20 01:06:34;;;;;;;;;;;;;;;;;;6274760;22;19925;-83
2024/04/20 01:09:08;;;;;;;;;;;;;;;;;;6276751;22;19924;-84
2024/04/20 01:11:35;;;;;;;;;;;;;;;;;;6275975;22;19944;-82
2024/04/20 01:14:02;;;;;;;;;;;;;;;;;;6274847;22;19936;-83
2024/04/20 01:16:36;;;;;;;;;;;;;;;;;;6274498;22;19952;-83
2024/04/20 01:19:03;;;;;;;;;;;;;;;;;;6278098;22;19924;-83
2024/04/20 01:21:37;;;;;;;;;;;;;;;;;;6275433;22;19932;-83
2024/04/20 01:24:05;;;;;;;;;;;;;;;;;;6275446;22;19953;-83
2024/04/20 01:26:33;;;;;;;;;;;;;;;;;;6277411;22;19932;-83
2024/04/20 01:29:08;;;;;;;;;;;;;;;;;;6276186;22;19924;-83
2024/04/20 01:31:35;;;;;;;;;;;;;;;;;;6275826;22;19997;-82
2024/04/20 01:34:10;;;;;;;;;;;;;;;;;;6277415;22;19948;-83
2024/04/20 01:36:37;;;;;;;;;;;;;;;;;;6277164;22;19995;-82
2024/04/20 01:39:04;;;;;;;;;;;;;;;;;;6276114;22;19932;-83
2024/04/20 01:41:38;;;;;;;;;;;;;;;;;;6275464;22;19932;-83
2024/04/20 01:44:05;;;;;;;;;;;;;;;;;;6274641;22;19973;-83
2024/04/20 01:46:33;;;;;;;;;;;;;;;;;;6304128;22;19927;-83
2024/04/20 01:49:07;;;;;;;;;;;;;;;;;;6325147;22;19924;-83
2024/04/20 01:51:35;;;;;;;;;;;;;;;;;;6282516;22;19931;-83
2024/04/20 01:54:04;;;;;;;;;;;;;;;;;;6283274;22;19928;-82
2024/04/20 01:56:38;;;;;;;;;;;;;;;;;;6286300;22;19952;-82
2024/04/20 01:59:05;;;;;;;;;;;;;;;;;;6282518;22;20014;-83
2024/04/20 02:01:41;;;;;;;;;;;;;;;;;;6284443;22;19935;-84
2024/04/20 02:04:08;;;;;;;;;;;;;;;;;;6326522;22;19924;-83
2024/04/20 02:06:42;;;;;;;;;;;;;;;;;;6285385;22;19924;-84
2024/04/20 02:09:11;;;;;;;;;;;;;;;;;;6283809;22;19924;-83
2024/04/20 02:11:38;;;;;;;;;;;;;;;;;;6326711;22;19935;-83
2024/04/20 02:14:12;;;;;;;;;;;;;;;;;;6326491;22;19924;-83
2024/04/20 02:16:40;;;;;;;;;;;;;;;;;;6286013;22;19931;-83
2024/04/20 02:19:14;;;;;;;;;;;;;;;;;;6326793;22;20235;-83
2024/04/20 02:21:41;;;;;;;;;;;;;;;;;;6325892;22;19953;-83
2024/04/20 02:24:09;;;;;;;;;;;;;;;;;;6285063;22;19924;-83
2024/04/20 02:26:43;;;;;;;;;;;;;;;;;;6287918;22;19995;-83
2024/04/20 02:29:10;;;;;;;;;;;;;;;;;;6329409;22;19936;-83
2024/04/20 02:31:44;;;;;;;;;;;;;;;;;;6328500;22;19948;-82
2024/04/20 02:34:11;;;;;;;;;;;;;;;;;;6328518;22;19936;-83
2024/04/20 02:36:39;;;;;;;;;;;;;;;;;;6284611;22;19969;-82
2024/04/20 02:39:13;;;;;;;;;;;;;;;;;;6287131;22;19930;-83
2024/04/20 02:41:41;;;;;;;;;;;;;;;;;;6285260;22;19948;-83
2024/04/20 02:44:15;;;;;;;;;;;;;;;;;;6326013;22;19995;-83
2024/04/20 02:46:42;;;;;;;;;;;;;;;;;;6275229;22;19932;-83
2024/04/20 02:49:09;;;;;;;;;;;;;;;;;;6278548;22;19982;-83
2024/04/20 02:51:43;;;;;;;;;;;;;;;;;;6278591;22;19936;-83
2024/04/20 02:54:11;;;;;;;;;;;;;;;;;;6276578;22;19996;-83
2024/04/20 02:56:45;;;;;;;;;;;;;;;;;;6277021;22;19924;-83
2024/04/20 02:59:13;;;;;;;;;;;;;;;;;;6276740;22;19996;-83
2024/04/20 03:01:40;;;;;;;;;;;;;;;;;;6280160;22;19924;-83
2024/04/20 03:04:14;;;;;;;;;;;;;;;;;;6280223;22;20326;-85
2024/04/20 03:06:41;;;;;;;;;;;;;;;;;;6277987;22;19933;-83
2024/04/20 03:09:15;;;;;;;;;;;;;;;;;;6280505;22;20264;-83
2024/04/20 03:11:42;;;;;;;;;;;;;;;;;;6277458;22;20234;-84
2024/04/20 03:14:09;;;;;;;;;;;;;;;;;;6277246;22;20259;-83
2024/04/20 03:16:43;;;;;;;;;;;;;;;;;;6277214;22;19925;-85
2024/04/20 03:19:11;;;;;;;;;;;;;;;;;;6278051;22;19925;-85
2024/04/20 03:21:45;;;;;;;;;;;;;;;;;;6276727;22;19924;-82
2024/04/20 03:24:12;;;;;;;;;;;;;;;;;;6277203;22;19931;-83
2024/04/20 03:26:39;;;;;;;;;;;;;;;;;;6278652;22;20344;-83
2024/04/20 03:29:13;;;;;;;;;;;;;;;;;;6276560;22;19936;-83
2024/04/20 03:31:40;;;;;;;;;;;;;;;;;;6276537;22;19924;-83
2024/04/20 03:34:08;;;;;;;;;;;;;;;;;;6275765;22;19962;-84
2024/04/20 03:36:42;;;;;;;;;;;;;;;;;;6276357;22;20000;-83
2024/04/20 03:39:09;;;;;;;;;;;;;;;;;;6276619;22;19957;-82
2024/04/20 03:41:36;;;;;;;;;;;;;;;;;;6275881;22;20604;-83
2024/04/20 03:44:10;;;;;;;;;;;;;;;;;;6278009;22;19925;-83
2024/04/20 03:46:37;;;;;;;;;;;;;;;;;;6276411;22;19935;-83
2024/04/20 03:49:11;;;;;;;;;;;;;;;;;;6276909;22;19999;-82
2024/04/20 03:51:38;;;;;;;;;;;;;;;;;;6276935;22;20000;-83
2024/04/20 03:54:06;;;;;;;;;;;;;;;;;;6277358;22;19949;-83
2024/04/20 03:56:40;;;;;;;;;;;;;;;;;;6275067;22;19973;-83
2024/04/20 03:59:07;;;;;;;;;;;;;;;;;;6277321;22;19978;-83
2024/04/20 04:01:41;;;;;;;;;;;;;;;;;;6278970;22;19936;-85
2024/04/20 04:04:08;;;;;;;;;;;;;;;;;;6276032;22;19924;-84
2024/04/20 04:06:42;;;;;;;;;;;;;;;;;;6277093;22;19924;-85
2024/04/20 04:09:09;;;;;;;;;;;;;;;;;;6275761;22;20028;-85
2024/04/20 04:11:36;;;;;;;;;;;;;;;;;;6275763;22;19931;-85
2024/04/20 04:14:10;;;;;;;;;;;;;;;;;;6278462;22;19931;-85
2024/04/20 04:16:37;;;;;;;;;;;;;;;;;;6278721;22;19936;-85
2024/04/20 04:19:11;;;;;;;;;;;;;;;;;;6278105;22;19931;-85
2024/04/20 04:21:38;;;;;;;;;;;;;;;;;;6275371;22;19957;-85
2024/04/20 04:24:06;;;;;;;;;;;;;;;;;;6277970;22;19949;-84
2024/04/20 04:26:41;;;;;;;;;;;;;;;;;;6277028;22;20438;-85
2024/04/20 04:29:08;;;;;;;;;;;;;;;;;;6274535;22;19925;-85
2024/04/20 04:31:35;;;;;;;;;;;;;;;;;;6276053;22;19925;-85
2024/04/20 04:34:09;;;;;;;;;;;;;;;;;;6276390;22;20418;-85
2024/04/20 04:36:36;;;;;;;;;;;;;;;;;;6298155;22;20263;-84
2024/04/20 04:39:08;;;;;;;;;;;;;;;;;;6326207;22;19924;-83
2024/04/20 04:41:41;;;;;;;;;;;;;;;;;;6324068;22;19936;-84
2024/04/20 04:44:08;;;;;;;;;;;;;;;;;;6323242;22;19930;-84
2024/04/20 04:46:42;;;;;;;;;;;;;;;;;;6321208;22;19931;-84
2024/04/20 04:49:09;;;;;;;;;;;;;;;;;;6323825;22;19923;-84
2024/04/20 04:51:37;;;;;;;;;;;;;;;;;;6325326;22;19931;-84
2024/04/20 04:54:11;;;;;;;;;;;;;;;;;;6325202;22;19960;-84
2024/04/20 04:56:38;;;;;;;;;;;;;;;;;;6323818;22;19995;-84
2024/04/20 04:59:12;;;;;;;;;;;;;;;;;;6324941;22;19999;-84
2024/04/20 05:01:41;;;;;;;;;;;;;;;;;;6324517;22;19924;-84
2024/04/20 05:04:15;;;;;;;;;;;;;;;;;;6324294;22;20217;-85
2024/04/20 05:06:45;;;;;;;;;;;;;;;;;;6323255;22;19930;-84
2024/04/20 05:09:19;;;;;;;;;;;;;;;;;;6326375;22;20278;-84
2024/04/20 05:11:47;;;;;;;;;;;;;;;;;;6324147;22;19924;-84
2024/04/20 05:14:15;;;;;;;;;;;;;;;;;;6326128;22;19944;-84
2024/04/20 05:16:49;;;;;;;;;;;;;;;;;;6325966;22;19923;-84
2024/04/20 05:19:16;;;;;;;;;;;;;;;;;;6323128;22;19924;-84
2024/04/20 05:21:43;;;;;;;;;;;;;;;;;;6325861;22;19936;-84
2024/04/20 05:24:17;;;;;;;;;;;;;;;;;;6326497;22;19936;-85
2024/04/20 05:26:45;;;;;;;;;;;;;;;;;;6325857;22;19931;-84
2024/04/20 05:29:12;;;;;;;;;;;;;;;;;;6323709;22;20306;-84
2024/04/20 05:31:46;;;;;;;;;;;;;;;;;;6327441;22;19936;-85
2024/04/20 05:34:13;;;;;;;;;;;;;;;;;;6326609;22;19932;-83
2024/04/20 05:36:40;;;;;;;;;;;;;;;;;;6324176;22;19965;-84
2024/04/20 05:39:16;;;;;;;;;;;;;;;;;;6326533;22;19924;-84
2024/04/20 05:41:43;;;;;;;;;;;;;;;;;;6323037;22;19924;-84
2024/04/20 05:44:10;;;;;;;;;;;;;;;;;;6325848;22;19996;-84
2024/04/20 05:46:44;;;;;;;;;;;;;;;;;;6319616;22;19923;-84
2024/04/20 05:49:11;;;;;;;;;;;;;;;;;;6324729;22;20297;-84
2024/04/20 05:51:39;;;;;;;;;;;;;;;;;;6323749;22;19956;-86
2024/04/20 05:54:13;;;;;;;;;;;;;;;;;;6323718;22;19924;-86
2024/04/20 05:56:40;;;;;;;;;;;;;;;;;;6323670;22;19990;-88
2024/04/20 05:59:08;;;;;;;;;;;;;;;;;;6325026;22;20323;-86
2024/04/20 06:01:42;;;;;;;;;;;;;;;;;;6325085;22;19996;-86
2024/04/20 06:04:11;;;;;;;;;;;;;;;;;;6328520;22;20195;-86
2024/04/20 06:06:44;;;;;;;;;;;;;;;;;;6326479;22;19924;-86
2024/04/20 06:09:13;;;;;;;;;;;;;;;;;;6326708;22;19930;-86
2024/04/20 06:11:40;;;;;;;;;;;;;;;;;;6327870;22;19957;-87
2024/04/20 06:14:14;;;;;;;;;;;;;;;;;;6328223;22;19923;-85
2024/04/20 06:16:41;;;;;;;;;;;;;;;;;;6326109;22;19923;-87
2024/04/20 06:19:09;;;;;;;;;;;;;;;;;;6325652;22;20243;-86
2024/04/20 06:21:43;;;;;;;;;;;;;;;;;;6329233;22;19924;-83
2024/04/20 06:24:13;;;;;;;;;;;;;;;;;;6326002;22;19924;-84
2024/04/20 06:26:40;;;;;;;;;;;;;;;;;;6326054;22;19969;-83
2024/04/20 06:29:14;;;;;;;;;;;;;;;;;;6326004;22;20630;-84
2024/04/20 06:31:41;;;;;;;;;;;;;;;;;;6326357;22;19923;-83
2024/04/20 06:34:15;;;;;;;;;;;;;;;;;;6327916;22;19924;-84
2024/04/20 06:36:42;;;;;;;;;;;;;;;;;;6328040;22;19924;-84
2024/04/20 06:39:10;;;;;;;;;;;;;;;;;;6327272;22;19936;-84
2024/04/20 06:41:44;;;;;;;;;;;;;;;;;;6327552;22;19936;-83
2024/04/20 06:44:11;;;;;;;;;;;;;;;;;;6326537;22;19973;-83
2024/04/20 06:46:45;;;;;;;;;;;;;;;;;;6323583;22;19935;-83
2024/04/20 06:49:13;;;;;;;;;;;;;;;;;;6324817;22;19972;-84
2024/04/20 06:51:40;;;;;;;;;;;;;;;;;;6325046;22;19931;-82
2024/04/20 06:54:14;;;;;;;;;;;;;;;;;;6324599;22;19923;-82
2024/04/20 06:56:41;;;;;;;;;;;;;;;;;;6323574;22;19994;-81
2024/04/20 06:59:09;;;;;;;;;;;;;;;;;;6326109;22;19973;-82
2024/04/20 07:01:43;;;;;;;;;;;;;;;;;;6324040;22;19932;-82
2024/04/20 07:04:10;;;;;;;;;;;;;;;;;;6326218;22;19936;-81
2024/04/20 07:06:37;;;;;;;;;;;;;;;;;;6324044;22;19924;-82
2024/04/20 07:09:11;;;;;;;;;;;;;;;;;;6325770;22;19924;-82
2024/04/20 07:11:38;;;;;;;;;;;;;;;;;;6323788;22;19931;-82
2024/04/20 07:14:12;;;;;;;;;;;;;;;;;;6326517;22;19952;-82
2024/04/20 07:16:39;;;;;;;;;;;;;;;;;;6326803;22;19999;-85
2024/04/20 07:19:07;;;;;;;;;;;;;;;;;;6324800;22;20241;-82
2024/04/20 07:21:41;;;;;;;;;;;;;;;;;;6326385;22;19945;-83
2024/04/20 07:24:08;;;;;;;;;;;;;;;;;;6325337;22;19924;-83
2024/04/20 07:26:42;;;;;;;;;;;;;;;;;;6326466;22;19935;-82
2024/04/20 07:29:09;;;;;;;;;;;;;;;;;;6322614;22;19996;-82
2024/04/20 07:31:36;;;;;;;;;;;;;;;;;;6325039;22;19931;-81
2024/04/20 07:34:10;;;;;;;;;;;;;;;;;;6324790;22;19948;-82
2024/04/20 07:36:37;;;;;;;;;;;;;;;;;;6325628;22;19924;-82
2024/04/20 07:39:11;;;;;;;;;;;;;;;;;;6326227;22;19951;-83
2024/04/20 07:41:38;;;;;;;;;;;;;;;;;;6324442;22;20398;-83
2024/04/20 07:44:05;;;;;;;;;;;;;;;;;;6324237;22;19996;-82
2024/04/20 07:46:39;;;;;;;;;;;;;;;;;;6322070;22;19924;-82
2024/04/20 07:49:06;;;;;;;;;;;;;;;;;;6324140;22;19924;-82
2024/04/20 07:51:40;;;;;;;;;;;;;;;;;;6323567;22;19940;-82
2024/04/20 07:54:07;;;;;;;;;;;;;;;;;;6325382;22;19936;-82
2024/04/20 07:56:34;;;;;;;;;;;;;;;;;;6325673;22;19999;-81
2024/04/20 07:59:08;;;;;;;;;;;;;;;;;;6324341;22;19931;-81
2024/04/20 08:01:35;;;;;;;;;;;;;;;;;;6322370;22;19924;-81
2024/04/20 08:04:10;;;;;;;;;;;;;;;;;;6323977;22;19941;-81
2024/04/20 08:06:37;;;;;;;;;;;;;;;;;;6326595;22;19923;-84
2024/04/20 08:09:11;;;;;;;;;;;;;;;;;;6326256;22;19935;-84
2024/04/20 08:11:41;;;;;;;;;;;;;;;;;;6324772;22;19924;-84
2024/04/20 08:14:08;;;;;;;;;;;;;;;;;;6325351;22;19924;-84
2024/04/20 08:16:42;;;;;;;;;;;;;;;;;;6323049;22;19924;-84
2024/04/20 08:19:09;;;;;;;;;;;;;;;;;;6323039;22;19995;-84
2024/04/20 08:21:36;;;;;;;;;;;;;;;;;;6323665;22;19996;-84
2024/04/20 08:24:10;;;;;;;;;;;;;;;;;;6322876;22;19924;-84
2024/04/20 08:26:37;;;;;;;;;;;;;;;;;;6322942;22;19931;-84
2024/04/20 08:29:11;;;;;;;;;;;;;;;;;;6323477;22;19932;-84
2024/04/20 08:31:39;;;;;;;;;;;;;;;;;;6322497;22;19995;-84
2024/04/20 08:34:13;;;;;;;;;;;;;;;;;;6323260;22;19936;-84
2024/04/20 08:36:40;;;;;;;;;;;;;;;;;;6323539;22;19924;-85
2024/04/20 08:39:08;;;;;;;;;;;;;;;;;;6324040;22;19952;-85
2024/04/20 08:41:42;;;;;;;;;;;;;;;;;;6323252;22;20301;-82
2024/04/20 08:44:09;;;;;;;;;;;;;;;;;;6324652;22;19996;-80
2024/04/20 08:46:36;;;;;;;;;;;;;;;;;;6317693;22;20128;-82
2024/04/20 08:49:10;;;;;;;;;;;;;;;;;;6320436;22;19973;-82
2024/04/20 08:51:45;;;;;;;;;;;;;;;;;;6321981;22;19924;-82
2024/04/20 08:54:12;;;;;;;;;;;;;;;;;;6321404;22;19923;-82
2024/04/20 08:56:39;;;;;;;;;;;;;;;;;;6322915;22;19936;-82
2024/04/20 08:59:13;;;;;;;;;;;;;;;;;;6323566;22;19931;-81
2024/04/20 09:01:47;;;;;;;;;;;;;;;;;;6323984;22;20284;-82
2024/04/20 09:04:15;;;;;;;;;;;;;;;;;;6323740;22;19931;-83
2024/04/20 09:06:49;;;;;;;;;;;;;;;;;;6324187;22;19993;-82
2024/04/20 09:09:16;;;;;;;;;;;;;;;;;;6322075;22;19931;-82
2024/04/20 09:11:44;;;;;;;;;;;;;;;;;;6321984;22;19997;-83
2024/04/20 09:14:29;;;;;;;;;;;;;;;;;;6322501;22;19930;-82
2024/04/20 09:16:56;;;;;;;;;;;;;;;;;;6323850;22;19936;-82
2024/04/20 09:19:30;;;;;;;;;;;;;;;;;;6321268;22;19935;-82
2024/04/20 09:21:57;;;;;;;;;;;;;;;;;;6322456;22;20406;-83
2024/04/20 09:24:24;;;;;;;;;;;;;;;;;;6325001;22;19931;-83
2024/04/20 09:26:58;;;;;;;;;;;;;;;;;;6324798;22;20009;-82
2024/04/20 09:29:25;;;;;;;;;;;;;;;;;;6322935;22;19932;-82
2024/04/20 09:31:59;;;;;;;;;;;;;;;;;;6323539;22;19924;-82
2024/04/20 09:34:26;;;;;;;;;;;;;;;;;;6321441;22;19936;-82
2024/04/20 09:36:54;;;;;;;;;;;;;;;;;;6323422;22;19931;-82
2024/04/20 09:39:28;;;;;;;;;;;;;;;;;;6322142;22;20338;-83
2024/04/20 09:41:55;;;;;;;;;;;;;;;;;;6324489;22;19936;-82
2024/04/20 09:44:31;;;;;;;;;;;;;;;;;;6324546;22;19931;-83
2024/04/20 09:46:59;;;;;;;;;;;;;;;;;;6323815;22;19936;-82
2024/04/20 09:49:26;;;;;;;;;;;;;;;;;;6323505;22;19924;-82
2024/04/20 09:52:07;;;;;;;;;;;;;;;;;;6324490;22;19999;-82
2024/04/20 09:54:34;;;;;;;;;;;;;;;;;;6323002;22;19931;-82
2024/04/20 09:57:08;;;;;;;;;;;;;;;;;;6323913;22;19932;-83
2024/04/20 09:59:35;;;;;;;;;;;;;;;;;;6281707;22;19924;-82
2024/04/20 10:02:09;;;;;;;;;;;;;;;;;;6323670;22;20274;-83
2024/04/20 10:04:37;;;;;;;;;;;;;;;;;;6324145;22;20350;-82
2024/04/20 10:07:04;;;;;;;;;;;;;;;;;;6323750;22;19930;-82
2024/04/20 10:09:38;;;;;;;;;;;;;;;;;;6284010;22;19927;-82
2024/04/20 10:12:06;;;;;;;;;;;;;;;;;;6322657;22;20354;-82
2024/04/20 10:14:33;;;;;;;;;;;;;;;;;;6282677;22;19924;-82
2024/04/20 10:17:07;;;;;;;;;;;;;;;;;;6323403;22;19935;-82
2024/04/20 10:19:34;;;;;;;;;;;;;;;;;;6323409;22;20249;-81
2024/04/20 10:22:02;;;;;;;;;;;;;;;;;;6323848;22;19935;-82
2024/04/20 10:24:35;;;;;;;;;;;;;;;;;;6323784;22;19935;-83
2024/04/20 10:27:02;;;;;;;;;;;;;;;;;;6324458;22;20366;-82
2024/04/20 10:29:31;;;;;;;;;;;;;;;;;;6323766;22;19924;-83
2024/04/20 10:32:06;;;;;;;;;;;;;;;;;;6324614;22;19996;-83
2024/04/20 10:34:34;;;;;;;;;;;;;;;;;;6325746;22;19948;-83
2024/04/20 10:37:11;;;;;;;;;;;;;;;;;;6326227;22;19973;-83
2024/04/20 10:39:39;;;;;;;;;;;;;;;;;;6283576;22;19923;-83
2024/04/20 10:42:07;;;;;;;;;;;;;;;;;;6323699;22;20322;-83
2024/04/20 10:44:41;;;;;;;;;;;;;;;;;;6284057;22;19936;-82
2024/04/20 10:47:08;;;;;;;;;;;;;;;;;;6292410;22;20588;-82
2024/04/20 10:49:35;;;;;;;;;;;;;;;;;;6324500;22;19972;-83
2024/04/20 10:52:11;;;;;;;;;;;;;;;;;;6323719;22;19924;-82
2024/04/20 10:54:39;;;;;;;;;;;;;;;;;;6324070;22;19940;-82
2024/04/20 10:57:12;;;;;;;;;;;;;;;;;;6325197;22;19928;-82
2024/04/20 10:59:39;;;;;;;;;;;;;;;;;;6324043;22;19997;-83
2024/04/20 11:02:09;;;;;;;;;;;;;;;;;;6325426;22;20423;-82
2024/04/20 11:04:43;;;;;;;;;;;;;;;;;;6324580;22;19961;-82
2024/04/20 11:07:10;;;;;;;;;;;;;;;;;;6324433;22;19924;-83
2024/04/20 11:09:47;;;;;;;;;;;;;;;;;;6324074;22;19924;-82
2024/04/20 11:12:14;;;;;;;;;;;;;;;;;;6325295;22;19923;-83
2024/04/20 11:14:41;;;;;;;;;;;;;;;;;;6323696;22;20016;-83
2024/04/20 11:17:15;;;;;;;;;;;;;;;;;;6326025;22;19924;-82
2024/04/20 11:19:42;;;;;;;;;;;;;;;;;;6324681;22;20442;-82
2024/04/20 11:22:11;;;;;;;;;;;;;;;;;;6322826;22;19925;-82
2024/04/20 11:24:46;;;;;;;;;;;;;;;;;;6323384;22;19924;-82
2024/04/20 11:27:13;;;;;;;;;;;;;;;;;;6325444;22;19931;-82
2024/04/20 11:29:47;;;;;;;;;;;;;;;;;;6324742;22;19996;-82
2024/04/20 11:32:15;;;;;;;;;;;;;;;;;;6323363;22;19924;-82
2024/04/20 11:34:42;;;;;;;;;;;;;;;;;;6322850;22;20350;-83
2024/04/20 11:37:16;;;;;;;;;;;;;;;;;;6325724;22;20366;-83
2024/04/20 11:39:43;;;;;;;;;;;;;;;;;;6322696;22;19924;-82
2024/04/20 11:42:17;;;;;;;;;;;;;;;;;;6323503;22;19957;-82
2024/04/20 11:44:44;;;;;;;;;;;;;;;;;;6323472;22;19969;-82
2024/04/20 11:47:12;;;;;;;;;;;;;;;;;;6318541;22;19973;-82
2024/04/20 11:49:46;;;;;;;;;;;;;;;;;;6322378;22;19932;-83
2024/04/20 11:55:06;;;;;;;;;;;;;;;;;;6324921;22;19924;-82
2024/04/20 11:57:33;;;;;;;;;;;;;;;;;;6323974;22;19932;-82
2024/04/20 12:00:04;;;;;;;;;;;;;;;;;;6322435;22;20211;-82
2024/04/20 12:02:39;;;;;;;;;;;;;;;;;;6325811;22;19948;-85
2024/04/20 12:05:06;;;;;;;;;;;;;;;;;;6324976;22;19971;-83
2024/04/20 12:07:40;;;;;;;;;;;;;;;;;;6323994;22;19953;-85
2024/04/20 12:10:09;;;;;;;;;;;;;;;;;;6323147;22;19932;-83
2024/04/20 12:12:37;;;;;;;;;;;;;;;;;;6325891;22;19924;-83
2024/04/20 12:15:13;;;;;;;;;;;;;;;;;;6323365;22;19924;-83
2024/04/20 12:17:40;;;;;;;;;;;;;;;;;;6323458;22;20337;-82
2024/04/20 12:20:15;;;;;;;;;;;;;;;;;;6324820;22;19924;-83
2024/04/20 12:22:43;;;;;;;;;;;;;;;;;;6325887;22;19936;-83
2024/04/20 12:25:10;;;;;;;;;;;;;;;;;;6322758;22;19930;-83
2024/04/20 12:27:44;;;;;;;;;;;;;;;;;;6324622;22;19924;-83
2024/04/20 12:30:11;;;;;;;;;;;;;;;;;;6325032;22;20317;-83
2024/04/20 12:32:39;;;;;;;;;;;;;;;;;;6324436;22;19928;-83
2024/04/20 12:35:12;;;;;;;;;;;;;;;;;;6325308;22;19924;-82
2024/04/20 12:37:39;;;;;;;;;;;;;;;;;;6322965;22;19932;-83
2024/04/20 12:40:13;;;;;;;;;;;;;;;;;;6324646;22;20456;-83
2024/04/20 12:42:40;;;;;;;;;;;;;;;;;;6323709;22;20390;-83
2024/04/20 12:45:07;;;;;;;;;;;;;;;;;;6326688;22;19952;-83
2024/04/20 12:47:43;;;;;;;;;;;;;;;;;;6331133;22;20225;-83
2024/04/20 12:50:10;;;;;;;;;;;;;;;;;;6331291;22;20421;-83
2024/04/20 12:52:44;;;;;;;;;;;;;;;;;;6331471;22;19935;-83
2024/04/20 12:55:13;;;;;;;;;;;;;;;;;;6331713;22;19936;-83
2024/04/20 12:57:40;;;;;;;;;;;;;;;;;;6328359;22;19956;-83
2024/04/20 13:00:14;;;;;;;;;;;;;;;;;;6325921;22;19924;-83
2024/04/20 13:02:41;;;;;;;;;;;;;;;;;;6324458;22;19924;-84
2024/04/20 13:05:15;;;;;;;;;;;;;;;;;;6325074;22;19923;-84
2024/04/20 13:07:42;;;;;;;;;;;;;;;;;;6283288;22;19924;-84
2024/04/20 13:10:09;;;;;;;;;;;;;;;;;;6325673;22;19935;-84
2024/04/20 13:12:43;;;;;;;;;;;;;;;;;;6289277;22;19930;-84
2024/04/20 13:15:11;;;;;;;;;;;;;;;;;;6327225;22;19964;-85
2024/04/20 13:17:38;;;;;;;;;;;;;;;;;;6326701;22;20393;-84
2024/04/20 13:20:12;;;;;;;;;;;;;;;;;;6288570;22;19948;-85
2024/04/20 13:22:39;;;;;;;;;;;;;;;;;;6283346;22;20304;-85
2024/04/20 13:25:07;;;;;;;;;;;;;;;;;;6323603;22;19936;-84
2024/04/20 13:27:40;;;;;;;;;;;;;;;;;;6281836;22;19930;-85
2024/04/20 13:30:08;;;;;;;;;;;;;;;;;;6324681;22;19931;-85
2024/04/20 13:32:35;;;;;;;;;;;;;;;;;;6282427;22;20237;-85
2024/04/20 13:35:18;;;;;;;;;;;;;;;;;;6323961;22;19932;-85
2024/04/20 13:37:52;;;;;;;;;;;;;;;;;;6284174;22;19924;-85
2024/04/20 13:40:20;;;;;;;;;;;;;;;;;;6282216;22;19972;-85
2024/04/20 13:42:54;;;;;;;;;;;;;;;;;;6282882;22;20344;-84
2024/04/20 13:45:21;;;;;;;;;;;;;;;;;;6323859;22;19931;-85
2024/04/20 13:47:49;;;;;;;;;;;;;;;;;;6323068;22;19932;-85
2024/04/20 13:50:22;;;;;;;;;;;;;;;;;;6282740;22;19927;-85
2024/04/20 13:52:49;;;;;;;;;;;;;;;;;;6282803;22;19956;-84
2024/04/20 13:55:23;;;;;;;;;;;;;;;;;;6279879;22;19924;-84
2024/04/20 13:57:50;;;;;;;;;;;;;;;;;;6324969;22;20417;-84
2024/04/20 14:00:17;;;;;;;;;;;;;;;;;;6325352;22;19968;-85
2024/04/20 14:02:51;;;;;;;;;;;;;;;;;;6286925;22;19924;-85
2024/04/20 14:05:18;;;;;;;;;;;;;;;;;;6283802;22;19940;-84
2024/04/20 14:07:52;;;;;;;;;;;;;;;;;;6326530;22;20417;-83
2024/04/20 14:10:19;;;;;;;;;;;;;;;;;;6283183;22;19995;-84
2024/04/20 14:12:55;;;;;;;;;;;;;;;;;;6325976;22;19924;-84
2024/04/20 14:15:29;;;;;;;;;;;;;;;;;;6325408;22;19931;-84
2024/04/20 14:17:56;;;;;;;;;;;;;;;;;;6283189;22;20321;-84
2024/04/20 14:20:31;;;;;;;;;;;;;;;;;;6325330;22;20127;-84
2024/04/20 14:22:58;;;;;;;;;;;;;;;;;;6284927;22;19935;-84
2024/04/20 14:25:25;;;;;;;;;;;;;;;;;;6326635;22;20004;-84
2024/04/20 14:28:00;;;;;;;;;;;;;;;;;;6287711;22;19931;-84
2024/04/20 14:30:27;;;;;;;;;;;;;;;;;;6327102;22;20377;-84
2024/04/20 14:33:01;;;;;;;;;;;;;;;;;;6290639;22;19931;-85
2024/04/20 14:35:28;;;;;;;;;;;;;;;;;;6329229;22;19924;-85
2024/04/20 14:38:02;;;;;;;;;;;;;;;;;;6330054;22;19935;-85
2024/04/20 14:40:29;;;;;;;;;;;;;;;;;;6330999;22;19996;-85
2024/04/20 14:42:56;;;;;;;;;;;;;;;;;;6329928;22;19936;-85
2024/04/20 14:45:30;;;;;;;;;;;;;;;;;;6290860;22;19950;-85
2024/04/20 14:47:57;;;;;;;;;;;;;;;;;;6305264;22;19996;-85
2024/04/20 14:50:25;;;;;;;;;;;;;;;;;;6328838;22;19924;-84
2024/04/20 14:52:58;;;;;;;;;;;;;;;;;;6328818;22;19935;-85
2024/04/20 14:55:25;;;;;;;;;;;;;;;;;;6326809;22;20320;-84
2024/04/20 14:57:59;;;;;;;;;;;;;;;;;;6327080;22;20300;-85
2024/04/20 15:00:26;;;;;;;;;;;;;;;;;;6327760;22;19939;-85
2024/04/20 15:02:54;;;;;;;;;;;;;;;;;;6327065;22;19924;-84
2024/04/20 15:05:27;;;;;;;;;;;;;;;;;;6327196;22;19995;-85
2024/04/20 15:07:54;;;;;;;;;;;;;;;;;;6329503;22;19999;-85
2024/04/20 15:10:28;;;;;;;;;;;;;;;;;;6327563;22;19924;-85
2024/04/20 15:12:55;;;;;;;;;;;;;;;;;;6328030;22;19932;-85
2024/04/20 15:15:22;;;;;;;;;;;;;;;;;;6326129;22;19924;-85
2024/04/20 15:17:56;;;;;;;;;;;;;;;;;;6327278;22;19972;-85
2024/04/20 15:20:23;;;;;;;;;;;;;;;;;;6328784;22;19930;-84
2024/04/20 15:22:57;;;;;;;;;;;;;;;;;;6326301;22;20072;-83
2024/04/20 15:25:24;;;;;;;;;;;;;;;;;;6326980;22;20258;-84
2024/04/20 15:27:51;;;;;;;;;;;;;;;;;;6329327;22;20000;-84
2024/04/20 15:30:25;;;;;;;;;;;;;;;;;;6329535;22;20015;-84
2024/04/20 15:32:52;;;;;;;;;;;;;;;;;;6328613;22;19973;-85
2024/04/20 15:35:20;;;;;;;;;;;;;;;;;;6327817;22;20396;-84
2024/04/20 15:37:54;;;;;;;;;;;;;;;;;;6325907;22;19973;-85
2024/04/20 15:40:22;;;;;;;;;;;;;;;;;;6326091;22;19931;-86
2024/04/20 15:42:51;;;;;;;;;;;;;;;;;;6327190;22;19941;-84
2024/04/20 15:45:25;;;;;;;;;;;;;;;;;;6329691;22;19935;-84
2024/04/20 15:47:52;;;;;;;;;;;;;;;;;;6324163;22;20238;-83
2024/04/20 15:50:20;;;;;;;;;;;;;;;;;;6326527;22;19948;-83
2024/04/20 15:52:54;;;;;;;;;;;;;;;;;;6329376;22;19972;-84
2024/04/20 15:55:24;;;;;;;;;;;;;;;;;;6326829;22;19931;-84
2024/04/20 15:57:58;;;;;;;;;;;;;;;;;;6326747;22;19996;-85
2024/04/20 16:00:25;;;;;;;;;;;;;;;;;;6327322;22;20272;-84
2024/04/20 16:02:53;;;;;;;;;;;;;;;;;;6325951;22;20343;-84
2024/04/20 16:05:27;;;;;;;;;;;;;;;;;;6328478;22;20349;-85
2024/04/20 16:07:54;;;;;;;;;;;;;;;;;;6327552;22;19948;-84
2024/04/20 16:10:39;;;;;;;;;;;;;;;;;;6324558;22;19931;-84
2024/04/20 16:13:12;;;;;;;;;;;;;;;;;;6328770;22;19996;-84
2024/04/20 16:15:39;;;;;;;;;;;;;;;;;;6327149;22;19924;-84
2024/04/20 16:18:07;;;;;;;;;;;;;;;;;;6328027;22;19951;-84
2024/04/20 16:20:41;;;;;;;;;;;;;;;;;;6328227;22;19941;-85
2024/04/20 16:23:09;;;;;;;;;;;;;;;;;;6328946;22;20327;-83
2024/04/20 16:25:38;;;;;;;;;;;;;;;;;;6329019;22;19924;-84
2024/04/20 16:28:19;;;;;;;;;;;;;;;;;;6331294;22;20000;-84
2024/04/20 16:30:46;;;;;;;;;;;;;;;;;;6329997;22;19924;-85
2024/04/20 16:33:20;;;;;;;;;;;;;;;;;;6328013;22;20248;-84
2024/04/20 16:35:48;;;;;;;;;;;;;;;;;;6329486;22;19971;-84
2024/04/20 16:38:15;;;;;;;;;;;;;;;;;;6331683;22;19924;-84
2024/04/20 16:40:49;;;;;;;;;;;;;;;;;;6329485;22;19923;-84
2024/04/20 16:43:16;;;;;;;;;;;;;;;;;;6330798;22;20000;-84
2024/04/20 16:45:50;;;;;;;;;;;;;;;;;;6331480;22;19972;-84
2024/04/20 16:48:24;;;;;;;;;;;;;;;;;;6330371;22;20224;-84
2024/04/20 16:50:58;;;;;;;;;;;;;;;;;;6330714;22;20448;-84
2024/04/20 16:53:26;;;;;;;;;;;;;;;;;;6288922;22;19924;-84
2024/04/20 16:55:53;;;;;;;;;;;;;;;;;;6288603;22;19924;-86
2024/04/20 16:58:28;;;;;;;;;;;;;;;;;;6290678;22;20350;-84
2024/04/20 17:00:55;;;;;;;;;;;;;;;;;;6331433;22;19956;-84
2024/04/20 17:03:29;;;;;;;;;;;;;;;;;;6290897;22;20330;-84
2024/04/20 17:05:58;;;;;;;;;;;;;;;;;;6287316;22;19941;-85
2024/04/20 17:08:32;;;;;;;;;;;;;;;;;;6330747;22;19924;-85